Mayhew, Mississippi
Current Conditions -  °F | °C
As of 3:55 AM on Friday 19 Dec 2014 (Local Time) from KGTR Reporting Station
Overcast Overcast  
Wind Chill:   Ceiling: 3200
Heat Index:   Visibility: 10mi
Dew Point:   Wind: 3mph
Humidity: 81%   Direction: 10°N
Pressure: 30.18"   Gusts: NA
Location:  33.49°N, 88.63°W
Report Text: KGTR 190955Z 01003KT 10SM OVC032 06/03 A3018 RMK AO1
Loading
Personal Weather Stations






























Interactive Weather Map New forecast layout! Learn more

10-Day Weather Forecast

Advertisements
Track Severe Weather on mobile